sensor_id;sensor_type;location;lat;lon;timestamp;P1;durP1;ratioP1;P2;durP2;ratioP2
41263;SDS011;26998;48.714;9.414;2023-03-01T00:02:01;32.10;;;19.03;;
41263;SDS011;26998;48.714;9.414;2023-03-01T00:04:28;31.30;;;18.13;;
41263;SDS011;26998;48.714;9.414;2023-03-01T00:06:55;32.97;;;18.57;;
41263;SDS011;26998;48.714;9.414;2023-03-01T00:09:21;30.97;;;18.03;;
41263;SDS011;26998;48.714;9.414;2023-03-01T00:11:48;36.93;;;20.00;;
41263;SDS011;26998;48.714;9.414;2023-03-01T00:14:15;36.97;;;21.30;;
41263;SDS011;26998;48.714;9.414;2023-03-01T00:16:42;34.13;;;19.27;;
41263;SDS011;26998;48.714;9.414;2023-03-01T00:19:17;31.03;;;18.57;;
41263;SDS011;26998;48.714;9.414;2023-03-01T00:21:45;32.90;;;18.77;;
41263;SDS011;26998;48.714;9.414;2023-03-01T00:24:12;29.37;;;17.87;;
41263;SDS011;26998;48.714;9.414;2023-03-01T00:26:38;31.13;;;17.40;;
41263;SDS011;26998;48.714;9.414;2023-03-01T00:29:05;30.20;;;16.77;;
41263;SDS011;26998;48.714;9.414;2023-03-01T00:31:32;30.57;;;17.27;;
41263;SDS011;26998;48.714;9.414;2023-03-01T00:34:03;28.30;;;16.20;;
41263;SDS011;26998;48.714;9.414;2023-03-01T00:36:32;29.27;;;16.73;;
41263;SDS011;26998;48.714;9.414;2023-03-01T00:39:02;28.48;;;17.38;;
41263;SDS011;26998;48.714;9.414;2023-03-01T00:41:31;30.00;;;17.67;;
41263;SDS011;26998;48.714;9.414;2023-03-01T00:43:59;30.33;;;16.83;;
41263;SDS011;26998;48.714;9.414;2023-03-01T00:46:26;31.40;;;17.60;;
41263;SDS011;26998;48.714;9.414;2023-03-01T00:48:53;30.60;;;18.13;;
41263;SDS011;26998;48.714;9.414;2023-03-01T00:51:21;30.73;;;17.47;;
41263;SDS011;26998;48.714;9.414;2023-03-01T00:53:52;26.60;;;17.13;;
41263;SDS011;26998;48.714;9.414;2023-03-01T00:56:20;27.83;;;17.47;;
41263;SDS011;26998;48.714;9.414;2023-03-01T00:58:48;32.17;;;18.93;;
41263;SDS011;26998;48.714;9.414;2023-03-01T01:01:16;28.80;;;17.57;;
41263;SDS011;26998;48.714;9.414;2023-03-01T01:03:46;26.83;;;16.43;;
41263;SDS011;26998;48.714;9.414;2023-03-01T01:06:21;29.53;;;16.33;;
41263;SDS011;26998;48.714;9.414;2023-03-01T01:08:59;31.00;;;17.60;;
41263;SDS011;26998;48.714;9.414;2023-03-01T01:11:27;32.00;;;18.47;;
41263;SDS011;26998;48.714;9.414;2023-03-01T01:13:55;35.13;;;20.57;;
41263;SDS011;26998;48.714;9.414;2023-03-01T01:16:24;32.60;;;19.23;;
41263;SDS011;26998;48.714;9.414;2023-03-01T01:18:52;34.07;;;19.23;;
41263;SDS011;26998;48.714;9.414;2023-03-01T01:21:21;34.30;;;19.83;;
41263;SDS011;26998;48.714;9.414;2023-03-01T01:23:56;33.47;;;18.47;;
41263;SDS011;26998;48.714;9.414;2023-03-01T01:26:31;31.67;;;18.43;;
41263;SDS011;26998;48.714;9.414;2023-03-01T01:28:59;30.60;;;18.03;;
41263;SDS011;26998;48.714;9.414;2023-03-01T01:31:27;30.17;;;17.53;;
41263;SDS011;26998;48.714;9.414;2023-03-01T01:33:54;30.13;;;18.00;;
41263;SDS011;26998;48.714;9.414;2023-03-01T01:36:22;27.10;;;16.83;;
41263;SDS011;26998;48.714;9.414;2023-03-01T01:38:48;26.30;;;16.00;;
41263;SDS011;26998;48.714;9.414;2023-03-01T01:41:15;28.67;;;16.43;;
41263;SDS011;26998;48.714;9.414;2023-03-01T01:43:49;28.70;;;17.00;;
41263;SDS011;26998;48.714;9.414;2023-03-01T01:47:04;27.33;;;16.53;;
41263;SDS011;26998;48.714;9.414;2023-03-01T01:49:42;26.60;;;15.50;;
41263;SDS011;26998;48.714;9.414;2023-03-01T01:54:58;28.20;;;16.17;;
41263;SDS011;26998;48.714;9.414;2023-03-01T01:57:34;28.40;;;16.90;;
41263;SDS011;26998;48.714;9.414;2023-03-01T02:00:06;27.70;;;15.43;;
41263;SDS011;26998;48.714;9.414;2023-03-01T02:02:39;28.50;;;16.57;;
41263;SDS011;26998;48.714;9.414;2023-03-01T02:05:11;30.30;;;16.63;;
41263;SDS011;26998;48.714;9.414;2023-03-01T02:07:42;25.33;;;15.00;;
41263;SDS011;26998;48.714;9.414;2023-03-01T02:10:09;25.07;;;14.30;;
41263;SDS011;26998;48.714;9.414;2023-03-01T02:12:36;27.60;;;15.17;;
41263;SDS011;26998;48.714;9.414;2023-03-01T02:15:04;24.30;;;15.57;;
41263;SDS011;26998;48.714;9.414;2023-03-01T02:17:31;24.83;;;16.13;;
41263;SDS011;26998;48.714;9.414;2023-03-01T02:20:07;30.43;;;17.50;;
41263;SDS011;26998;48.714;9.414;2023-03-01T02:23:11;33.47;;;18.10;;
41263;SDS011;26998;48.714;9.414;2023-03-01T02:25:50;30.50;;;17.90;;
41263;SDS011;26998;48.714;9.414;2023-03-01T02:28:31;28.83;;;17.33;;
41263;SDS011;26998;48.714;9.414;2023-03-01T02:31:08;28.57;;;16.50;;
41263;SDS011;26998;48.714;9.414;2023-03-01T02:33:37;26.77;;;16.30;;
41263;SDS011;26998;48.714;9.414;2023-03-01T02:36:09;29.03;;;16.80;;
41263;SDS011;26998;48.714;9.414;2023-03-01T02:38:40;28.67;;;17.83;;
41263;SDS011;26998;48.714;9.414;2023-03-01T02:41:08;27.03;;;16.63;;
41263;SDS011;26998;48.714;9.414;2023-03-01T02:43:40;25.33;;;16.40;;
41263;SDS011;26998;48.714;9.414;2023-03-01T02:46:28;30.17;;;17.50;;
41263;SDS011;26998;48.714;9.414;2023-03-01T02:48:55;30.13;;;16.67;;
41263;SDS011;26998;48.714;9.414;2023-03-01T02:54:21;27.53;;;17.20;;
41263;SDS011;26998;48.714;9.414;2023-03-01T02:56:59;26.97;;;16.67;;
41263;SDS011;26998;48.714;9.414;2023-03-01T02:59:32;27.13;;;16.07;;
41263;SDS011;26998;48.714;9.414;2023-03-01T03:02:02;20.77;;;13.35;;
41263;SDS011;26998;48.714;9.414;2023-03-01T03:04:29;26.87;;;16.33;;
41263;SDS011;26998;48.714;9.414;2023-03-01T03:06:57;27.27;;;16.80;;
41263;SDS011;26998;48.714;9.414;2023-03-01T03:09:24;24.83;;;15.87;;
41263;SDS011;26998;48.714;9.414;2023-03-01T03:11:51;28.40;;;17.50;;
41263;SDS011;26998;48.714;9.414;2023-03-01T03:14:17;30.73;;;16.93;;
41263;SDS011;26998;48.714;9.414;2023-03-01T03:16:49;32.13;;;16.77;;
41263;SDS011;26998;48.714;9.414;2023-03-01T03:19:17;31.60;;;17.83;;
41263;SDS011;26998;48.714;9.414;2023-03-01T03:21:49;30.23;;;17.83;;
41263;SDS011;26998;48.714;9.414;2023-03-01T03:24:16;29.87;;;18.00;;
41263;SDS011;26998;48.714;9.414;2023-03-01T03:26:45;33.57;;;18.07;;
41263;SDS011;26998;48.714;9.414;2023-03-01T03:29:12;29.80;;;18.63;;
41263;SDS011;26998;48.714;9.414;2023-03-01T03:31:38;31.80;;;18.07;;
41263;SDS011;26998;48.714;9.414;2023-03-01T03:34:05;30.77;;;17.77;;
41263;SDS011;26998;48.714;9.414;2023-03-01T03:36:33;27.37;;;17.43;;
41263;SDS011;26998;48.714;9.414;2023-03-01T03:38:59;28.17;;;17.43;;
41263;SDS011;26998;48.714;9.414;2023-03-01T03:41:26;30.17;;;17.70;;
41263;SDS011;26998;48.714;9.414;2023-03-01T03:43:53;23.77;;;16.43;;
41263;SDS011;26998;48.714;9.414;2023-03-01T03:46:20;27.57;;;16.57;;
41263;SDS011;26998;48.714;9.414;2023-03-01T03:48:47;27.67;;;16.60;;
41263;SDS011;26998;48.714;9.414;2023-03-01T03:51:14;32.10;;;16.60;;
41263;SDS011;26998;48.714;9.414;2023-03-01T03:53:43;27.07;;;17.40;;
41263;SDS011;26998;48.714;9.414;2023-03-01T03:56:11;28.47;;;16.97;;
41263;SDS011;26998;48.714;9.414;2023-03-01T03:58:42;28.10;;;16.63;;
41263;SDS011;26998;48.714;9.414;2023-03-01T04:01:13;25.40;;;15.77;;
41263;SDS011;26998;48.714;9.414;2023-03-01T04:03:41;29.97;;;18.50;;
41263;SDS011;26998;48.714;9.414;2023-03-01T04:06:08;30.63;;;17.47;;
41263;SDS011;26998;48.714;9.414;2023-03-01T04:08:34;26.50;;;17.10;;
41263;SDS011;26998;48.714;9.414;2023-03-01T04:11:02;27.00;;;17.10;;
41263;SDS011;26998;48.714;9.414;2023-03-01T04:13:30;24.07;;;15.33;;
41263;SDS011;26998;48.714;9.414;2023-03-01T04:15:58;27.80;;;17.83;;
41263;SDS011;26998;48.714;9.414;2023-03-01T04:18:25;32.87;;;17.13;;
41263;SDS011;26998;48.714;9.414;2023-03-01T04:20:55;21.75;;;13.13;;
41263;SDS011;26998;48.714;9.414;2023-03-01T04:23:23;30.50;;;18.03;;
41263;SDS011;26998;48.714;9.414;2023-03-01T04:25:55;29.93;;;17.93;;
41263;SDS011;26998;48.714;9.414;2023-03-01T04:28:27;34.73;;;18.63;;
41263;SDS011;26998;48.714;9.414;2023-03-01T04:30:57;37.57;;;22.07;;
41263;SDS011;26998;48.714;9.414;2023-03-01T04:33:25;35.70;;;20.73;;
41263;SDS011;26998;48.714;9.414;2023-03-01T04:35:53;38.60;;;22.60;;
41263;SDS011;26998;48.714;9.414;2023-03-01T04:38:20;41.77;;;22.67;;
41263;SDS011;26998;48.714;9.414;2023-03-01T04:40:48;34.30;;;20.40;;
41263;SDS011;26998;48.714;9.414;2023-03-01T04:43:15;29.47;;;18.00;;
41263;SDS011;26998;48.714;9.414;2023-03-01T04:45:42;36.63;;;20.77;;
41263;SDS011;26998;48.714;9.414;2023-03-01T04:48:09;31.80;;;19.90;;
41263;SDS011;26998;48.714;9.414;2023-03-01T04:50:36;35.27;;;20.83;;
41263;SDS011;26998;48.714;9.414;2023-03-01T04:53:02;37.03;;;23.33;;
41263;SDS011;26998;48.714;9.414;2023-03-01T04:55:30;50.97;;;29.07;;
41263;SDS011;26998;48.714;9.414;2023-03-01T04:57:56;47.07;;;26.93;;
41263;SDS011;26998;48.714;9.414;2023-03-01T05:00:26;42.30;;;25.07;;
41263;SDS011;26998;48.714;9.414;2023-03-01T05:02:53;35.37;;;21.23;;
41263;SDS011;26998;48.714;9.414;2023-03-01T05:05:27;41.75;;;22.17;;
41263;SDS011;26998;48.714;9.414;2023-03-01T05:08:02;34.07;;;19.23;;
41263;SDS011;26998;48.714;9.414;2023-03-01T05:10:34;31.00;;;19.50;;
41263;SDS011;26998;48.714;9.414;2023-03-01T05:13:07;33.70;;;19.13;;
41263;SDS011;26998;48.714;9.414;2023-03-01T05:15:48;36.40;;;19.00;;
41263;SDS011;26998;48.714;9.414;2023-03-01T05:18:20;29.60;;;18.23;;
41263;SDS011;26998;48.714;9.414;2023-03-01T05:20:47;28.90;;;18.47;;
41263;SDS011;26998;48.714;9.414;2023-03-01T05:23:15;30.03;;;17.93;;
41263;SDS011;26998;48.714;9.414;2023-03-01T05:25:42;31.77;;;18.50;;
41263;SDS011;26998;48.714;9.414;2023-03-01T05:28:10;31.60;;;18.40;;
41263;SDS011;26998;48.714;9.414;2023-03-01T05:30:38;31.27;;;19.23;;
41263;SDS011;26998;48.714;9.414;2023-03-01T05:33:05;31.37;;;18.97;;
41263;SDS011;26998;48.714;9.414;2023-03-01T05:35:35;31.98;;;19.30;;
41263;SDS011;26998;48.714;9.414;2023-03-01T05:38:02;28.97;;;19.23;;
41263;SDS011;26998;48.714;9.414;2023-03-01T05:40:30;33.90;;;19.77;;
41263;SDS011;26998;48.714;9.414;2023-03-01T05:42:59;30.20;;;17.70;;
41263;SDS011;26998;48.714;9.414;2023-03-01T05:45:27;32.90;;;18.40;;
41263;SDS011;26998;48.714;9.414;2023-03-01T05:47:55;31.33;;;17.97;;
41263;SDS011;26998;48.714;9.414;2023-03-01T05:50:23;31.10;;;18.20;;
41263;SDS011;26998;48.714;9.414;2023-03-01T05:52:57;34.03;;;19.47;;
41263;SDS011;26998;48.714;9.414;2023-03-01T05:55:29;30.77;;;17.60;;
41263;SDS011;26998;48.714;9.414;2023-03-01T05:57:59;31.57;;;18.40;;
41263;SDS011;26998;48.714;9.414;2023-03-01T06:00:29;28.30;;;17.97;;
41263;SDS011;26998;48.714;9.414;2023-03-01T06:02:58;30.90;;;18.70;;
41263;SDS011;26998;48.714;9.414;2023-03-01T06:05:27;33.00;;;19.23;;
41263;SDS011;26998;48.714;9.414;2023-03-01T06:07:55;30.53;;;19.30;;
41263;SDS011;26998;48.714;9.414;2023-03-01T06:10:27;31.90;;;18.63;;
41263;SDS011;26998;48.714;9.414;2023-03-01T06:12:55;32.50;;;20.67;;
41263;SDS011;26998;48.714;9.414;2023-03-01T06:15:30;30.63;;;18.77;;
41263;SDS011;26998;48.714;9.414;2023-03-01T06:17:58;33.47;;;18.93;;
41263;SDS011;26998;48.714;9.414;2023-03-01T06:22:57;30.10;;;18.27;;
41263;SDS011;26998;48.714;9.414;2023-03-01T06:25:25;29.73;;;19.00;;
41263;SDS011;26998;48.714;9.414;2023-03-01T06:27:54;35.17;;;19.33;;
41263;SDS011;26998;48.714;9.414;2023-03-01T06:30:22;29.53;;;18.37;;
41263;SDS011;26998;48.714;9.414;2023-03-01T06:32:50;33.67;;;19.57;;
41263;SDS011;26998;48.714;9.414;2023-03-01T06:35:26;29.40;;;17.90;;
41263;SDS011;26998;48.714;9.414;2023-03-01T06:37:55;35.10;;;18.53;;
41263;SDS011;26998;48.714;9.414;2023-03-01T06:40:25;28.00;;;18.65;;
41263;SDS011;26998;48.714;9.414;2023-03-01T06:42:52;32.83;;;18.83;;
41263;SDS011;26998;48.714;9.414;2023-03-01T06:45:25;29.43;;;18.53;;
41263;SDS011;26998;48.714;9.414;2023-03-01T06:48:05;31.13;;;18.43;;
41263;SDS011;26998;48.714;9.414;2023-03-01T06:50:38;34.63;;;17.43;;
41263;SDS011;26998;48.714;9.414;2023-03-01T06:53:06;31.77;;;18.57;;
41263;SDS011;26998;48.714;9.414;2023-03-01T06:55:33;31.27;;;18.90;;
41263;SDS011;26998;48.714;9.414;2023-03-01T06:58:03;34.10;;;19.47;;
41263;SDS011;26998;48.714;9.414;2023-03-01T07:00:31;30.07;;;18.63;;
41263;SDS011;26998;48.714;9.414;2023-03-01T07:02:58;29.57;;;18.97;;
41263;SDS011;26998;48.714;9.414;2023-03-01T07:05:29;31.23;;;18.70;;
41263;SDS011;26998;48.714;9.414;2023-03-01T07:08:04;36.53;;;19.07;;
41263;SDS011;26998;48.714;9.414;2023-03-01T07:10:34;33.50;;;18.90;;
41263;SDS011;26998;48.714;9.414;2023-03-01T07:13:01;34.72;;;18.63;;
41263;SDS011;26998;48.714;9.414;2023-03-01T07:15:28;30.93;;;18.53;;
41263;SDS011;26998;48.714;9.414;2023-03-01T07:17:56;29.73;;;17.47;;
41263;SDS011;26998;48.714;9.414;2023-03-01T07:20:25;32.70;;;20.40;;
41263;SDS011;26998;48.714;9.414;2023-03-01T07:22:52;37.20;;;20.13;;
41263;SDS011;26998;48.714;9.414;2023-03-01T07:25:19;29.93;;;18.63;;
41263;SDS011;26998;48.714;9.414;2023-03-01T07:27:49;32.63;;;17.97;;
41263;SDS011;26998;48.714;9.414;2023-03-01T07:30:17;29.43;;;17.87;;
41263;SDS011;26998;48.714;9.414;2023-03-01T07:32:45;30.90;;;19.20;;
41263;SDS011;26998;48.714;9.414;2023-03-01T07:35:12;31.87;;;19.50;;
41263;SDS011;26998;48.714;9.414;2023-03-01T07:37:39;29.83;;;18.30;;
41263;SDS011;26998;48.714;9.414;2023-03-01T07:40:06;32.70;;;18.90;;
41263;SDS011;26998;48.714;9.414;2023-03-01T07:42:33;29.27;;;18.67;;
41263;SDS011;26998;48.714;9.414;2023-03-01T07:44:59;36.13;;;18.67;;
41263;SDS011;26998;48.714;9.414;2023-03-01T07:47:26;29.93;;;19.13;;
41263;SDS011;26998;48.714;9.414;2023-03-01T07:49:52;33.30;;;19.83;;
41263;SDS011;26998;48.714;9.414;2023-03-01T07:52:19;30.73;;;19.27;;
41263;SDS011;26998;48.714;9.414;2023-03-01T07:54:45;33.63;;;20.77;;
41263;SDS011;26998;48.714;9.414;2023-03-01T07:57:20;33.33;;;18.27;;
41263;SDS011;26998;48.714;9.414;2023-03-01T07:59:47;28.20;;;17.97;;
41263;SDS011;26998;48.714;9.414;2023-03-01T08:02:13;32.87;;;18.37;;
41263;SDS011;26998;48.714;9.414;2023-03-01T08:04:40;29.67;;;19.60;;
41263;SDS011;26998;48.714;9.414;2023-03-01T08:07:09;31.40;;;19.07;;
41263;SDS011;26998;48.714;9.414;2023-03-01T08:09:35;31.52;;;19.67;;
41263;SDS011;26998;48.714;9.414;2023-03-01T08:12:02;36.10;;;21.23;;
41263;SDS011;26998;48.714;9.414;2023-03-01T08:14:30;29.48;;;17.85;;
41263;SDS011;26998;48.714;9.414;2023-03-01T08:16:57;30.20;;;18.87;;
41263;SDS011;26998;48.714;9.414;2023-03-01T08:19:24;29.98;;;19.10;;
41263;SDS011;26998;48.714;9.414;2023-03-01T08:21:51;28.73;;;18.67;;
41263;SDS011;26998;48.714;9.414;2023-03-01T08:24:18;29.38;;;18.27;;
41263;SDS011;26998;48.714;9.414;2023-03-01T08:26:45;28.40;;;18.30;;
41263;SDS011;26998;48.714;9.414;2023-03-01T08:29:11;31.35;;;19.98;;
41263;SDS011;26998;48.714;9.414;2023-03-01T08:31:38;28.13;;;18.58;;
41263;SDS011;26998;48.714;9.414;2023-03-01T08:34:11;32.72;;;19.50;;
41263;SDS011;26998;48.714;9.414;2023-03-01T08:36:40;30.58;;;19.42;;
41263;SDS011;26998;48.714;9.414;2023-03-01T08:39:09;29.80;;;19.42;;
41263;SDS011;26998;48.714;9.414;2023-03-01T08:41:38;29.30;;;18.60;;
41263;SDS011;26998;48.714;9.414;2023-03-01T08:44:05;26.35;;;17.98;;
41263;SDS011;26998;48.714;9.414;2023-03-01T08:46:39;26.80;;;19.02;;
41263;SDS011;26998;48.714;9.414;2023-03-01T08:49:07;26.52;;;18.67;;
41263;SDS011;26998;48.714;9.414;2023-03-01T08:51:35;34.28;;;18.73;;
41263;SDS011;26998;48.714;9.414;2023-03-01T08:54:03;30.95;;;20.20;;
41263;SDS011;26998;48.714;9.414;2023-03-01T08:56:38;31.15;;;18.58;;
41263;SDS011;26998;48.714;9.414;2023-03-01T08:59:05;29.20;;;19.15;;
41263;SDS011;26998;48.714;9.414;2023-03-01T09:01:35;29.42;;;18.05;;
41263;SDS011;26998;48.714;9.414;2023-03-01T09:04:02;27.75;;;18.55;;
41263;SDS011;26998;48.714;9.414;2023-03-01T09:06:30;27.38;;;18.42;;
41263;SDS011;26998;48.714;9.414;2023-03-01T09:08:57;27.40;;;18.73;;
41263;SDS011;26998;48.714;9.414;2023-03-01T09:11:24;28.73;;;18.27;;
41263;SDS011;26998;48.714;9.414;2023-03-01T09:13:51;31.27;;;19.23;;
41263;SDS011;26998;48.714;9.414;2023-03-01T09:16:20;24.35;;;17.25;;
41263;SDS011;26998;48.714;9.414;2023-03-01T09:18:48;26.77;;;18.15;;
41263;SDS011;26998;48.714;9.414;2023-03-01T09:21:17;27.50;;;17.35;;
41263;SDS011;26998;48.714;9.414;2023-03-01T09:24:02;31.90;;;19.52;;
41263;SDS011;26998;48.714;9.414;2023-03-01T09:26:29;31.67;;;19.15;;
41263;SDS011;26998;48.714;9.414;2023-03-01T09:28:58;26.02;;;18.45;;
41263;SDS011;26998;48.714;9.414;2023-03-01T09:31:24;30.73;;;19.60;;
41263;SDS011;26998;48.714;9.414;2023-03-01T09:33:52;29.75;;;18.25;;
41263;SDS011;26998;48.714;9.414;2023-03-01T09:36:20;25.15;;;17.92;;
41263;SDS011;26998;48.714;9.414;2023-03-01T09:38:48;27.30;;;17.77;;
41263;SDS011;26998;48.714;9.414;2023-03-01T09:44:02;30.65;;;18.92;;
41263;SDS011;26998;48.714;9.414;2023-03-01T09:46:38;28.38;;;19.38;;
41263;SDS011;26998;48.714;9.414;2023-03-01T09:49:10;27.50;;;18.20;;
41263;SDS011;26998;48.714;9.414;2023-03-01T09:51:54;28.65;;;18.35;;
41263;SDS011;26998;48.714;9.414;2023-03-01T09:54:26;26.67;;;17.50;;
41263;SDS011;26998;48.714;9.414;2023-03-01T10:00:18;28.85;;;17.85;;
41263;SDS011;26998;48.714;9.414;2023-03-01T10:05:59;31.13;;;20.20;;
41263;SDS011;26998;48.714;9.414;2023-03-01T10:11:25;25.27;;;17.15;;
41263;SDS011;26998;48.714;9.414;2023-03-01T10:14:05;31.23;;;18.77;;
41263;SDS011;26998;48.714;9.414;2023-03-01T10:16:48;34.30;;;18.73;;
41263;SDS011;26998;48.714;9.414;2023-03-01T10:22:11;34.40;;;19.08;;
41263;SDS011;26998;48.714;9.414;2023-03-01T10:24:41;31.55;;;19.83;;
41263;SDS011;26998;48.714;9.414;2023-03-01T10:27:24;29.85;;;18.92;;
41263;SDS011;26998;48.714;9.414;2023-03-01T10:33:31;32.75;;;20.58;;
41263;SDS011;26998;48.714;9.414;2023-03-01T10:36:19;29.55;;;18.92;;
41263;SDS011;26998;48.714;9.414;2023-03-01T10:38:55;29.00;;;18.27;;
41263;SDS011;26998;48.714;9.414;2023-03-01T10:47:31;25.30;;;16.73;;
41263;SDS011;26998;48.714;9.414;2023-03-01T10:50:02;24.35;;;17.35;;
41263;SDS011;26998;48.714;9.414;2023-03-01T10:52:37;25.02;;;17.77;;
41263;SDS011;26998;48.714;9.414;2023-03-01T10:57:54;26.75;;;17.52;;
41263;SDS011;26998;48.714;9.414;2023-03-01T11:00:33;26.13;;;17.10;;
41263;SDS011;26998;48.714;9.414;2023-03-01T11:03:26;25.50;;;18.48;;
41263;SDS011;26998;48.714;9.414;2023-03-01T11:08:55;25.13;;;16.90;;
41263;SDS011;26998;48.714;9.414;2023-03-01T11:11:36;26.00;;;17.67;;
41263;SDS011;26998;48.714;9.414;2023-03-01T11:14:18;25.17;;;16.23;;
41263;SDS011;26998;48.714;9.414;2023-03-01T11:17:28;24.55;;;17.65;;
41263;SDS011;26998;48.714;9.414;2023-03-01T11:25:54;27.42;;;17.25;;
41263;SDS011;26998;48.714;9.414;2023-03-01T11:28:22;29.30;;;17.40;;
41263;SDS011;26998;48.714;9.414;2023-03-01T11:31:05;22.73;;;17.00;;
41263;SDS011;26998;48.714;9.414;2023-03-01T11:33:42;26.65;;;17.65;;
41263;SDS011;26998;48.714;9.414;2023-03-01T11:38:55;26.02;;;17.70;;
41263;SDS011;26998;48.714;9.414;2023-03-01T11:41:30;27.20;;;17.65;;
41263;SDS011;26998;48.714;9.414;2023-03-01T11:44:03;19.73;;;15.20;;
41263;SDS011;26998;48.714;9.414;2023-03-01T11:49:39;29.83;;;17.10;;
41263;SDS011;26998;48.714;9.414;2023-03-01T12:03:16;21.98;;;16.58;;
41263;SDS011;26998;48.714;9.414;2023-03-01T12:25:02;24.77;;;16.08;;
41263;SDS011;26998;48.714;9.414;2023-03-01T12:30:25;24.65;;;16.60;;
41263;SDS011;26998;48.714;9.414;2023-03-01T12:36:10;27.70;;;17.67;;
41263;SDS011;26998;48.714;9.414;2023-03-01T12:41:46;24.45;;;17.60;;
41263;SDS011;26998;48.714;9.414;2023-03-01T12:44:28;23.23;;;16.85;;
41263;SDS011;26998;48.714;9.414;2023-03-01T12:49:57;26.58;;;16.27;;
41263;SDS011;26998;48.714;9.414;2023-03-01T12:55:25;25.40;;;15.68;;
41263;SDS011;26998;48.714;9.414;2023-03-01T13:01:22;20.63;;;16.13;;
41263;SDS011;26998;48.714;9.414;2023-03-01T13:04:47;27.45;;;17.83;;
41263;SDS011;26998;48.714;9.414;2023-03-01T13:07:30;21.90;;;15.32;;
41263;SDS011;26998;48.714;9.414;2023-03-01T13:10:11;22.50;;;14.68;;
41263;SDS011;26998;48.714;9.414;2023-03-01T13:18:27;22.50;;;15.80;;
41263;SDS011;26998;48.714;9.414;2023-03-01T13:20:48;20.95;;;15.02;;
41263;SDS011;26998;48.714;9.414;2023-03-01T13:31:55;23.33;;;16.67;;
41263;SDS011;26998;48.714;9.414;2023-03-01T13:33:58;21.98;;;14.90;;
41263;SDS011;26998;48.714;9.414;2023-03-01T13:46:50;20.63;;;14.77;;
41263;SDS011;26998;48.714;9.414;2023-03-01T13:49:48;23.30;;;15.82;;
41263;SDS011;26998;48.714;9.414;2023-03-01T13:54:56;20.75;;;14.55;;
41263;SDS011;26998;48.714;9.414;2023-03-01T13:57:25;21.35;;;15.55;;
41263;SDS011;26998;48.714;9.414;2023-03-01T14:00:06;20.13;;;14.18;;
41263;SDS011;26998;48.714;9.414;2023-03-01T14:06:00;25.25;;;14.80;;
41263;SDS011;26998;48.714;9.414;2023-03-01T14:08:41;22.77;;;14.50;;
41263;SDS011;26998;48.714;9.414;2023-03-01T14:11:17;19.48;;;15.23;;
41263;SDS011;26998;48.714;9.414;2023-03-01T14:19:36;20.98;;;15.15;;
41263;SDS011;26998;48.714;9.414;2023-03-01T14:22:12;26.38;;;18.75;;
41263;SDS011;26998;48.714;9.414;2023-03-01T14:24:47;23.27;;;15.48;;
41263;SDS011;26998;48.714;9.414;2023-03-01T14:27:18;24.77;;;15.52;;
41263;SDS011;26998;48.714;9.414;2023-03-01T14:29:58;22.85;;;16.42;;
41263;SDS011;26998;48.714;9.414;2023-03-01T14:34:56;55.72;;;19.73;;
41263;SDS011;26998;48.714;9.414;2023-03-01T14:37:25;21.20;;;15.18;;
41263;SDS011;26998;48.714;9.414;2023-03-01T14:39:52;23.77;;;16.33;;
41263;SDS011;26998;48.714;9.414;2023-03-01T14:42:20;23.80;;;16.45;;
41263;SDS011;26998;48.714;9.414;2023-03-01T14:44:51;25.55;;;16.60;;
41263;SDS011;26998;48.714;9.414;2023-03-01T14:47:25;24.73;;;17.05;;
41263;SDS011;26998;48.714;9.414;2023-03-01T14:52:49;22.15;;;16.25;;
41263;SDS011;26998;48.714;9.414;2023-03-01T14:55:25;23.10;;;16.55;;
41263;SDS011;26998;48.714;9.414;2023-03-01T14:57:57;25.85;;;16.00;;
41263;SDS011;26998;48.714;9.414;2023-03-01T15:00:27;24.38;;;16.08;;
41263;SDS011;26998;48.714;9.414;2023-03-01T15:02:56;21.67;;;15.30;;
41263;SDS011;26998;48.714;9.414;2023-03-01T15:05:32;20.98;;;16.00;;
41263;SDS011;26998;48.714;9.414;2023-03-01T15:08:03;24.60;;;15.50;;
41263;SDS011;26998;48.714;9.414;2023-03-01T15:10:33;21.05;;;15.23;;
41263;SDS011;26998;48.714;9.414;2023-03-01T15:13:14;23.65;;;14.68;;
41263;SDS011;26998;48.714;9.414;2023-03-01T15:15:47;25.50;;;16.08;;
41263;SDS011;26998;48.714;9.414;2023-03-01T15:18:20;23.75;;;16.10;;
41263;SDS011;26998;48.714;9.414;2023-03-01T15:20:52;21.63;;;15.38;;
41263;SDS011;26998;48.714;9.414;2023-03-01T15:23:25;23.88;;;15.23;;
41263;SDS011;26998;48.714;9.414;2023-03-01T15:25:55;22.30;;;14.82;;
41263;SDS011;26998;48.714;9.414;2023-03-01T15:28:28;21.95;;;14.82;;
41263;SDS011;26998;48.714;9.414;2023-03-01T15:31:00;21.60;;;14.65;;
41263;SDS011;26998;48.714;9.414;2023-03-01T15:33:31;24.50;;;15.55;;
41263;SDS011;26998;48.714;9.414;2023-03-01T15:36:01;23.25;;;15.32;;
41263;SDS011;26998;48.714;9.414;2023-03-01T15:38:51;21.48;;;14.52;;
41263;SDS011;26998;48.714;9.414;2023-03-01T15:43:55;25.00;;;15.45;;
41263;SDS011;26998;48.714;9.414;2023-03-01T15:46:32;28.25;;;17.60;;
41263;SDS011;26998;48.714;9.414;2023-03-01T15:49:02;21.95;;;14.82;;
41263;SDS011;26998;48.714;9.414;2023-03-01T15:51:35;25.20;;;16.90;;
41263;SDS011;26998;48.714;9.414;2023-03-01T15:54:13;21.80;;;14.48;;
41263;SDS011;26998;48.714;9.414;2023-03-01T15:56:51;24.13;;;14.85;;
41263;SDS011;26998;48.714;9.414;2023-03-01T15:59:18;24.27;;;14.20;;
41263;SDS011;26998;48.714;9.414;2023-03-01T16:01:46;28.13;;;15.90;;
41263;SDS011;26998;48.714;9.414;2023-03-01T16:04:14;24.55;;;14.63;;
41263;SDS011;26998;48.714;9.414;2023-03-01T16:06:42;23.65;;;14.80;;
41263;SDS011;26998;48.714;9.414;2023-03-01T16:09:10;22.83;;;15.07;;
41263;SDS011;26998;48.714;9.414;2023-03-01T16:11:37;23.17;;;14.98;;
41263;SDS011;26998;48.714;9.414;2023-03-01T16:14:04;21.65;;;13.88;;
41263;SDS011;26998;48.714;9.414;2023-03-01T16:16:31;21.48;;;14.52;;
41263;SDS011;26998;48.714;9.414;2023-03-01T16:18:58;20.80;;;13.85;;
41263;SDS011;26998;48.714;9.414;2023-03-01T16:21:32;18.55;;;12.93;;
41263;SDS011;26998;48.714;9.414;2023-03-01T16:23:59;20.27;;;14.40;;
41263;SDS011;26998;48.714;9.414;2023-03-01T16:26:26;21.75;;;14.25;;
41263;SDS011;26998;48.714;9.414;2023-03-01T16:28:56;21.25;;;13.98;;
41263;SDS011;26998;48.714;9.414;2023-03-01T16:31:24;21.45;;;14.10;;
41263;SDS011;26998;48.714;9.414;2023-03-01T16:33:52;22.02;;;14.77;;
41263;SDS011;26998;48.714;9.414;2023-03-01T16:36:21;21.48;;;13.82;;
41263;SDS011;26998;48.714;9.414;2023-03-01T16:38:48;29.73;;;17.10;;
41263;SDS011;26998;48.714;9.414;2023-03-01T16:41:16;23.15;;;15.75;;
41263;SDS011;26998;48.714;9.414;2023-03-01T16:43:44;29.92;;;17.77;;
41263;SDS011;26998;48.714;9.414;2023-03-01T16:46:20;28.35;;;17.95;;
41263;SDS011;26998;48.714;9.414;2023-03-01T16:49:08;23.98;;;16.77;;
41263;SDS011;26998;48.714;9.414;2023-03-01T16:51:37;23.25;;;15.32;;
41263;SDS011;26998;48.714;9.414;2023-03-01T16:54:04;24.93;;;16.33;;
41263;SDS011;26998;48.714;9.414;2023-03-01T16:56:32;29.52;;;17.45;;
41263;SDS011;26998;48.714;9.414;2023-03-01T16:59:07;27.17;;;17.13;;
41263;SDS011;26998;48.714;9.414;2023-03-01T17:01:34;28.25;;;16.00;;
41263;SDS011;26998;48.714;9.414;2023-03-01T17:04:01;25.65;;;15.93;;
41263;SDS011;26998;48.714;9.414;2023-03-01T17:06:31;25.25;;;16.63;;